AXQ weather

Clarion County Airport
Clarion, Pennsylvania, United States

Public forecast

Using degrees Fahrenheit for public forecast. Weather courtesy of forecast.io.

Closest aviation weather report (METAR) to Clarion County Airport

Closest report is Venango Regional Airport, 21.0 nm (38.9 km) WNW. Retrieved 2019/10/23 05:56 UTC (23 minutes ago):

KFKL 230556Z AUTO 26006KT 10SM CLR 07/03 A2987 RMK AO2 SLP120 T00720028 10106 20072 50003

Closest aviation forecast (TAF) to Clarion County Airport

Closest forecast is Venango Regional Airport, 21.0 nm (38.9 km) WNW. Retrieved 2019/10/23 06:22 UTC (0 seconds ago):

TAF KFKL 230520Z 2306/2406 23005KT P6SM SCT070 FM231400 24015G25KT P6SM SKC FM232200 22010KT P6SM SKC